Route Details

Aircraft Information
Group: North America Fleet
Types: B738, B752, B762, B763
Route Data
Distance: 1144nm
Duration: 3h 39m
Origin METAR: KMCI 072353Z 35007KT 10SM FEW200 05/M08 A3023 RMK AO2 SLP242 T00501083 10106 20050 51012
Dest. METAR: KONT 072353Z 29005KT 10SM FEW250 20/M03 A3020 RMK AO2 SLP220 T02001033 10200 20167 56012
Freight Data
(for Feb 8, 2023)
Load Factor:
49%
Manifested Cargo: 47,482lbs
Financial History
Total Freight: 0lbs
Average Load: 0lbs/flt
Fuel Used: 0lbs
Avg. Fuel Used: 0lbs/flt
Fuel Expense: $0
Avg. Fuel Expense: $0
Avg. Fuel Cost: $0/lbs
Total Gross Income: $0
Pilot Pay: $0
Total Expenses: $0
Total Revenue: $0
Average Revenue: $0

Capitol Logistics 462




KMCI
Kansas City International Airport
Kansas City, Missouri
KONT
Ontario International Airport
Ontario, California

Activity Log

Date Flight Route Aircraft Duration
No Flights Yet